Time;durP1;ratioP1;P1;durP2;ratioP2;P2;SDS_P1;SDS_P2;PMS_P1;PMS_P2;Temp;Humidity;BMP_temperature;BMP_pressure;BME280_temperature;BME280_humidity;BME280_pressure;Samples;Min_cycle;Max_cycle;Signal;HPM_P1;HPM_P2
2022/12/12 00:01:32;;;;;;;28.25;13.63;;;;;;;;;;5028647;28;20396;-62
2022/12/12 00:03:58;;;;;;;26.98;13.43;;;;;;;;;;5028884;28;20519;-62
2022/12/12 00:06:25;;;;;;;25.60;13.05;;;;;;;;;;5032340;28;20033;-62
2022/12/12 00:08:51;;;;;;;29.05;13.82;;;;;;;;;;5032060;28;20465;-62
2022/12/12 00:11:17;;;;;;;29.45;14.43;;;;;;;;;;5032373;28;20045;-62
2022/12/12 00:13:44;;;;;;;29.55;13.23;;;;;;;;;;5032177;28;20064;-62
2022/12/12 00:16:10;;;;;;;28.55;13.60;;;;;;;;;;5030401;28;20053;-62
2022/12/12 00:18:37;;;;;;;24.05;12.70;;;;;;;;;;5032352;28;20060;-62
2022/12/12 00:21:05;;;;;;;25.83;12.57;;;;;;;;;;5031865;28;20052;-62
2022/12/12 00:23:31;;;;;;;29.02;14.32;;;;;;;;;;5031971;28;20045;-62
2022/12/12 00:25:58;;;;;;;27.17;13.23;;;;;;;;;;5032147;28;20050;-62
2022/12/12 00:28:26;;;;;;;25.20;13.00;;;;;;;;;;5031918;28;20123;-62
2022/12/12 00:30:52;;;;;;;26.90;13.30;;;;;;;;;;5031664;28;20495;-62
2022/12/12 00:33:18;;;;;;;29.60;13.75;;;;;;;;;;5032186;28;20061;-62
2022/12/12 00:35:44;;;;;;;24.63;12.32;;;;;;;;;;5031953;28;20077;-62
2022/12/12 00:38:10;;;;;;;24.77;13.20;;;;;;;;;;5031569;28;20037;-62
2022/12/12 00:40:36;;;;;;;26.17;13.32;;;;;;;;;;5031529;28;20038;-62
2022/12/12 00:43:03;;;;;;;25.77;12.98;;;;;;;;;;5031812;28;20259;-62
2022/12/12 00:45:29;;;;;;;26.40;13.50;;;;;;;;;;5031752;28;20341;-62
2022/12/12 00:47:55;;;;;;;27.40;12.82;;;;;;;;;;5030427;28;20069;-62
2022/12/12 00:50:21;;;;;;;27.15;13.60;;;;;;;;;;5031693;28;20068;-62
2022/12/12 00:52:47;;;;;;;26.27;13.13;;;;;;;;;;5031548;28;20046;-62
2022/12/12 00:55:13;;;;;;;26.77;12.43;;;;;;;;;;5031173;28;20041;-62
2022/12/12 00:57:39;;;;;;;24.60;12.32;;;;;;;;;;5031551;28;20041;-62
2022/12/12 01:00:08;;;;;;;23.58;12.18;;;;;;;;;;5031471;28;20045;-62
2022/12/12 01:02:34;;;;;;;27.25;13.30;;;;;;;;;;5031139;28;20135;-62
2022/12/12 01:05:00;;;;;;;25.15;12.38;;;;;;;;;;5031442;28;20450;-62
2022/12/12 01:07:27;;;;;;;24.30;11.63;;;;;;;;;;5031277;28;20050;-62
2022/12/12 01:09:53;;;;;;;24.42;11.88;;;;;;;;;;5029235;28;20116;-62
2022/12/12 01:12:19;;;;;;;26.98;12.57;;;;;;;;;;5031438;28;20125;-62
2022/12/12 01:14:45;;;;;;;23.90;12.45;;;;;;;;;;5030985;28;20152;-62
2022/12/12 01:17:11;;;;;;;26.15;12.75;;;;;;;;;;5030610;28;20531;-62
2022/12/12 01:19:37;;;;;;;23.55;12.50;;;;;;;;;;5029998;28;20045;-62
2022/12/12 01:22:03;;;;;;;23.27;12.73;;;;;;;;;;5031019;28;20050;-62
2022/12/12 01:24:29;;;;;;;25.48;12.80;;;;;;;;;;5030417;28;20513;-62
2022/12/12 01:26:55;;;;;;;24.25;12.30;;;;;;;;;;5031065;28;20048;-62
2022/12/12 01:29:21;;;;;;;24.08;12.40;;;;;;;;;;5031350;28;20081;-62
2022/12/12 01:31:47;;;;;;;27.30;12.77;;;;;;;;;;5030428;28;20499;-62
2022/12/12 01:34:13;;;;;;;25.08;13.13;;;;;;;;;;5031104;28;20055;-62
2022/12/12 01:36:39;;;;;;;25.38;12.65;;;;;;;;;;5030846;28;20052;-62
2022/12/12 01:39:05;;;;;;;24.50;12.27;;;;;;;;;;5030613;28;20403;-62
2022/12/12 01:41:31;;;;;;;25.55;13.35;;;;;;;;;;5030794;28;20041;-62
2022/12/12 01:44:00;;;;;;;22.38;11.65;;;;;;;;;;5030866;28;20445;-62
2022/12/12 01:46:34;;;;;;;26.60;12.18;;;;;;;;;;5030292;28;20073;-62
2022/12/12 01:49:06;;;;;;;24.42;12.30;;;;;;;;;;5030671;28;20041;-62
2022/12/12 01:51:32;;;;;;;26.42;13.18;;;;;;;;;;5030549;28;20045;-62
2022/12/12 01:54:07;;;;;;;21.70;11.95;;;;;;;;;;5030389;28;20124;-62
2022/12/12 01:56:33;;;;;;;23.90;11.73;;;;;;;;;;5030529;28;20610;-62
2022/12/12 01:59:00;;;;;;;23.50;11.65;;;;;;;;;;5030535;28;20045;-62
2022/12/12 02:01:27;;;;;;;24.65;12.15;;;;;;;;;;5029620;28;20037;-62
2022/12/12 02:03:53;;;;;;;21.90;12.13;;;;;;;;;;5028979;28;20108;-62
2022/12/12 02:06:22;;;;;;;22.65;11.60;;;;;;;;;;5030181;28;20069;-62
2022/12/12 02:08:48;;;;;;;25.50;11.68;;;;;;;;;;5029558;28;20088;-62
2022/12/12 02:11:14;;;;;;;26.65;13.30;;;;;;;;;;5030075;28;20037;-62
2022/12/12 02:13:41;;;;;;;22.20;11.95;;;;;;;;;;5029659;28;20053;-62
2022/12/12 02:16:06;;;;;;;22.23;11.55;;;;;;;;;;5029590;28;20047;-62
2022/12/12 02:18:37;;;;;;;27.15;12.50;;;;;;;;;;5030051;28;20124;-62
2022/12/12 02:21:15;;;;;;;22.75;12.73;;;;;;;;;;5030019;28;20049;-62
2022/12/12 02:23:50;;;;;;;26.17;12.70;;;;;;;;;;5029718;28;20041;-62
2022/12/12 02:26:35;;;;;;;25.02;11.75;;;;;;;;;;5029795;28;20471;-62
2022/12/12 02:29:24;;;;;;;24.52;11.88;;;;;;;;;;5029655;28;20061;-62
2022/12/12 02:32:01;;;;;;;21.90;11.43;;;;;;;;;;5029738;28;20434;-62
2022/12/12 02:34:33;;;;;;;23.10;12.07;;;;;;;;;;5029884;28;20048;-62
2022/12/12 02:37:07;;;;;;;24.55;12.02;;;;;;;;;;5029493;28;20439;-62
2022/12/12 02:39:33;;;;;;;23.65;12.65;;;;;;;;;;5029812;28;20200;-62
2022/12/12 02:42:01;;;;;;;24.95;11.95;;;;;;;;;;5029890;28;20043;-62
2022/12/12 02:44:35;;;;;;;22.23;12.13;;;;;;;;;;5029135;28;20037;-62
2022/12/12 02:47:01;;;;;;;20.45;11.10;;;;;;;;;;5028139;28;20071;-62
2022/12/12 02:49:34;;;;;;;23.38;10.98;;;;;;;;;;5029502;28;20462;-62
2022/12/12 02:52:01;;;;;;;25.30;11.57;;;;;;;;;;5029120;28;20033;-62
2022/12/12 02:54:27;;;;;;;25.25;12.10;;;;;;;;;;5029367;28;20072;-62
2022/12/12 02:56:55;;;;;;;23.40;11.30;;;;;;;;;;5029430;28;20041;-62
2022/12/12 02:59:27;;;;;;;24.65;12.55;;;;;;;;;;5028985;28;20099;-62
2022/12/12 03:01:56;;;;;;;24.17;11.65;;;;;;;;;;5027785;28;20049;-62
2022/12/12 03:10:08;;;;;;;26.00;11.60;;;;;;;;;;5029210;28;20037;-62
2022/12/12 03:12:41;;;;;;;22.67;11.48;;;;;;;;;;5028701;28;20521;-61
2022/12/12 03:15:13;;;;;;;26.33;11.85;;;;;;;;;;5028652;28;20063;-62
2022/12/12 03:17:42;;;;;;;22.63;11.48;;;;;;;;;;5029007;28;20045;-62
2022/12/12 03:20:08;;;;;;;25.02;11.45;;;;;;;;;;5029183;28;20138;-62
2022/12/12 03:22:51;;;;;;;23.73;11.88;;;;;;;;;;5028489;28;20061;-62
2022/12/12 03:25:23;;;;;;;21.45;11.40;;;;;;;;;;5029117;28;20037;-62
2022/12/12 03:28:07;;;;;;;25.15;11.82;;;;;;;;;;5029033;28;20183;-62
2022/12/12 03:30:37;;;;;;;23.85;11.40;;;;;;;;;;5028710;28;20079;-62
2022/12/12 03:33:06;;;;;;;23.73;11.85;;;;;;;;;;5028870;28;20257;-62
2022/12/12 03:35:34;;;;;;;23.98;11.55;;;;;;;;;;5029005;28;20045;-62
2022/12/12 03:38:11;;;;;;;21.50;10.90;;;;;;;;;;5028576;28;20475;-62
2022/12/12 03:40:43;;;;;;;21.90;11.48;;;;;;;;;;5033212;28;20045;-62
2022/12/12 03:43:11;;;;;;;27.50;11.80;;;;;;;;;;5032583;28;20042;-62
2022/12/12 03:45:37;;;;;;;23.50;11.30;;;;;;;;;;5032950;28;20041;-62
2022/12/12 03:48:12;;;;;;;25.58;13.18;;;;;;;;;;5032935;28;20395;-62
2022/12/12 03:50:50;;;;;;;24.00;12.60;;;;;;;;;;5031205;28;20056;-62
2022/12/12 03:53:25;;;;;;;23.38;11.60;;;;;;;;;;5032699;28;20052;-62
2022/12/12 03:55:54;;;;;;;24.70;12.18;;;;;;;;;;5032898;28;20502;-62
2022/12/12 03:58:20;;;;;;;23.80;11.95;;;;;;;;;;5032064;28;20080;-62
2022/12/12 04:00:47;;;;;;;23.58;12.60;;;;;;;;;;5032647;28;20037;-62
2022/12/12 04:03:16;;;;;;;22.58;12.15;;;;;;;;;;5032697;28;20460;-62
2022/12/12 04:08:37;;;;;;;25.63;12.80;;;;;;;;;;5032429;28;20049;-62
2022/12/12 04:14:10;;;;;;;25.17;12.50;;;;;;;;;;5031547;28;20062;-62
2022/12/12 04:16:39;;;;;;;23.60;11.77;;;;;;;;;;5032461;28;20510;-62
2022/12/12 04:23:14;;;;;;;26.75;12.27;;;;;;;;;;5031955;28;20041;-62
2022/12/12 04:24:55;;;;;;;25.23;12.95;;;;;;;;;;5032274;28;20047;-62
2022/12/12 04:27:25;;;;;;;22.80;11.55;;;;;;;;;;4992997;28;20054;-62
2022/12/12 04:29:51;;;;;;;22.65;11.68;;;;;;;;;;4992403;28;20100;-62
2022/12/12 04:32:29;;;;;;;24.27;12.38;;;;;;;;;;4992299;28;20042;-62
2022/12/12 04:34:58;;;;;;;24.33;12.15;;;;;;;;;;4992817;28;20038;-62
2022/12/12 04:37:27;;;;;;;24.65;12.25;;;;;;;;;;4992156;28;20061;-62
2022/12/12 04:39:55;;;;;;;24.17;12.35;;;;;;;;;;4992473;28;20031;-62
2022/12/12 04:42:22;;;;;;;26.13;12.60;;;;;;;;;;4991978;28;20046;-62
2022/12/12 04:44:50;;;;;;;26.30;12.70;;;;;;;;;;4992519;28;20042;-62
2022/12/12 04:47:17;;;;;;;23.27;13.23;;;;;;;;;;4992279;28;20393;-62
2022/12/12 04:49:46;;;;;;;27.40;13.07;;;;;;;;;;4991900;28;20049;-62
2022/12/12 04:52:13;;;;;;;23.88;12.32;;;;;;;;;;4991963;28;20145;-62
2022/12/12 04:55:01;;;;;;;25.02;12.55;;;;;;;;;;4992622;28;20397;-62
2022/12/12 04:57:30;;;;;;;26.02;12.05;;;;;;;;;;4992051;28;20065;-62
2022/12/12 04:59:56;;;;;;;24.80;11.65;;;;;;;;;;4992287;28;20331;-62
2022/12/12 05:02:31;;;;;;;25.08;12.55;;;;;;;;;;4992067;28;20373;-62
2022/12/12 05:04:58;;;;;;;24.55;12.10;;;;;;;;;;4991574;28;20048;-62
2022/12/12 05:07:31;;;;;;;22.40;11.45;;;;;;;;;;4992120;28;20481;-62
2022/12/12 05:09:57;;;;;;;24.08;12.05;;;;;;;;;;5011662;28;20120;-62
2022/12/12 05:12:23;;;;;;;25.35;12.32;;;;;;;;;;5030901;28;20064;-62
2022/12/12 05:14:49;;;;;;;25.48;11.98;;;;;;;;;;5030832;28;20125;-62
2022/12/12 05:17:16;;;;;;;25.02;12.07;;;;;;;;;;5031080;28;20045;-62
2022/12/12 05:19:42;;;;;;;23.13;11.82;;;;;;;;;;5030689;28;20049;-62
2022/12/12 05:22:08;;;;;;;26.20;12.77;;;;;;;;;;5031130;28;20040;-62
2022/12/12 05:24:34;;;;;;;28.25;13.00;;;;;;;;;;5031450;28;20068;-62
2022/12/12 05:27:00;;;;;;;22.63;12.07;;;;;;;;;;5030417;28;20384;-62
2022/12/12 05:29:27;;;;;;;24.98;12.50;;;;;;;;;;5030860;28;20081;-62
2022/12/12 05:31:52;;;;;;;24.95;12.98;;;;;;;;;;5030787;28;20038;-62
2022/12/12 05:34:19;;;;;;;25.30;12.65;;;;;;;;;;5030628;28;20052;-62
2022/12/12 05:36:45;;;;;;;24.38;11.65;;;;;;;;;;5032595;28;20045;-62
2022/12/12 05:39:11;;;;;;;24.33;12.48;;;;;;;;;;5032930;28;20075;-62
2022/12/12 05:41:37;;;;;;;25.80;13.15;;;;;;;;;;5032428;28;20427;-62
2022/12/12 05:44:03;;;;;;;22.95;11.73;;;;;;;;;;5032697;28;20037;-62
2022/12/12 05:46:29;;;;;;;28.23;12.88;;;;;;;;;;5032764;28;20395;-62
2022/12/12 05:48:55;;;;;;;24.27;12.13;;;;;;;;;;5032624;28;20041;-62
2022/12/12 05:51:21;;;;;;;24.33;11.95;;;;;;;;;;5032550;28;20041;-62
2022/12/12 05:53:47;;;;;;;25.27;12.90;;;;;;;;;;5032582;28;20048;-62
2022/12/12 05:56:13;;;;;;;25.48;13.13;;;;;;;;;;5032843;28;20121;-62
2022/12/12 05:58:40;;;;;;;23.30;13.23;;;;;;;;;;5032121;28;20128;-62
2022/12/12 06:01:06;;;;;;;27.67;12.80;;;;;;;;;;5032470;28;20038;-62
2022/12/12 06:03:33;;;;;;;26.65;13.57;;;;;;;;;;5032607;28;20037;-62
2022/12/12 06:05:59;;;;;;;26.75;13.25;;;;;;;;;;5032080;28;20045;-62
2022/12/12 06:08:25;;;;;;;24.98;12.77;;;;;;;;;;5032251;28;20119;-62
2022/12/12 06:10:51;;;;;;;23.40;12.65;;;;;;;;;;5030569;28;20068;-62
2022/12/12 06:13:17;;;;;;;24.80;12.45;;;;;;;;;;5031227;28;20057;-62
2022/12/12 06:15:43;;;;;;;23.00;12.27;;;;;;;;;;5032227;28;20395;-62
2022/12/12 06:18:11;;;;;;;26.38;12.98;;;;;;;;;;5032047;28;20057;-62
2022/12/12 06:20:37;;;;;;;23.92;12.48;;;;;;;;;;5031557;28;20045;-62
2022/12/12 06:23:03;;;;;;;26.02;12.18;;;;;;;;;;5032098;28;20076;-62
2022/12/12 06:25:29;;;;;;;27.08;13.60;;;;;;;;;;5031451;28;20045;-62
2022/12/12 06:27:55;;;;;;;28.40;13.63;;;;;;;;;;5031553;28;20480;-62
2022/12/12 06:30:21;;;;;;;23.67;12.20;;;;;;;;;;5031438;28;20122;-62
2022/12/12 06:32:47;;;;;;;26.42;13.52;;;;;;;;;;5031048;28;20041;-62
2022/12/12 06:35:14;;;;;;;24.50;12.75;;;;;;;;;;5030718;28;20045;-62
2022/12/12 06:37:41;;;;;;;22.35;12.55;;;;;;;;;;5031776;28;20049;-62
2022/12/12 06:40:07;;;;;;;26.48;13.48;;;;;;;;;;5031715;28;20554;-62
2022/12/12 06:42:33;;;;;;;26.17;12.95;;;;;;;;;;5031109;28;20048;-62
2022/12/12 06:44:59;;;;;;;25.92;12.88;;;;;;;;;;5031731;28;20116;-62
2022/12/12 06:47:25;;;;;;;26.83;12.70;;;;;;;;;;5031540;28;20148;-62
2022/12/12 06:49:51;;;;;;;24.83;13.18;;;;;;;;;;5031085;28;20130;-62
2022/12/12 06:52:17;;;;;;;25.70;13.13;;;;;;;;;;5031617;28;20041;-62
2022/12/12 06:54:43;;;;;;;26.00;12.90;;;;;;;;;;5031338;28;20041;-62
2022/12/12 06:57:09;;;;;;;23.65;12.60;;;;;;;;;;5031313;28;20038;-62
2022/12/12 06:59:35;;;;;;;24.70;12.18;;;;;;;;;;5031427;28;20477;-62
2022/12/12 07:02:01;;;;;;;24.77;13.10;;;;;;;;;;5031414;28;20073;-62
2022/12/12 07:04:28;;;;;;;26.38;13.48;;;;;;;;;;5030822;28;20088;-62
2022/12/12 07:06:54;;;;;;;29.13;13.88;;;;;;;;;;5031350;28;20056;-62
2022/12/12 07:09:20;;;;;;;27.52;12.80;;;;;;;;;;5031006;28;20033;-62
2022/12/12 07:11:46;;;;;;;25.42;12.93;;;;;;;;;;5030938;28;20364;-62
2022/12/12 07:14:12;;;;;;;26.90;13.07;;;;;;;;;;5030413;28;20057;-62
2022/12/12 07:16:38;;;;;;;22.40;11.63;;;;;;;;;;5031007;28;20077;-62
2022/12/12 07:19:04;;;;;;;24.17;13.00;;;;;;;;;;5030868;28;20506;-62
2022/12/12 07:21:30;;;;;;;26.55;13.25;;;;;;;;;;5030866;28;20044;-62
2022/12/12 07:23:56;;;;;;;23.80;13.20;;;;;;;;;;5030979;28;20069;-62
2022/12/12 07:26:23;;;;;;;23.55;12.27;;;;;;;;;;5028092;28;20087;-62
2022/12/12 07:28:50;;;;;;;23.25;11.95;;;;;;;;;;5013954;28;20045;-62
2022/12/12 07:31:18;;;;;;;26.73;12.27;;;;;;;;;;5009521;28;20054;-62
2022/12/12 07:33:44;;;;;;;27.20;12.88;;;;;;;;;;5028480;28;20053;-62
2022/12/12 07:36:10;;;;;;;25.73;13.73;;;;;;;;;;5010014;28;20045;-60
2022/12/12 07:38:37;;;;;;;24.70;12.13;;;;;;;;;;5009049;28;20060;-60
2022/12/12 07:41:04;;;;;;;26.73;13.60;;;;;;;;;;5009524;28;20549;-60
2022/12/12 07:43:30;;;;;;;25.15;13.23;;;;;;;;;;5010112;28;20040;-60
2022/12/12 07:45:56;;;;;;;26.35;14.23;;;;;;;;;;5015553;28;20072;-60
2022/12/12 07:48:22;;;;;;;26.23;13.80;;;;;;;;;;5010827;28;20046;-59
2022/12/12 07:50:49;;;;;;;25.58;13.13;;;;;;;;;;5008432;28;20045;-61
2022/12/12 07:53:15;;;;;;;23.67;12.60;;;;;;;;;;5010093;28;20046;-59
2022/12/12 07:55:41;;;;;;;26.08;13.23;;;;;;;;;;5008320;28;20046;-59
2022/12/12 07:58:07;;;;;;;24.65;13.18;;;;;;;;;;5009474;28;20676;-59
2022/12/12 08:00:33;;;;;;;24.30;12.73;;;;;;;;;;5008607;28;20095;-59
2022/12/12 08:02:59;;;;;;;26.98;12.48;;;;;;;;;;5009508;28;20544;-60
2022/12/12 08:05:25;;;;;;;24.73;12.90;;;;;;;;;;5018510;28;20041;-59
2022/12/12 08:07:51;;;;;;;24.60;12.55;;;;;;;;;;5026312;28;20041;-60
2022/12/12 08:10:17;;;;;;;27.17;13.85;;;;;;;;;;5026636;28;20046;-58
2022/12/12 08:12:43;;;;;;;24.70;13.00;;;;;;;;;;5027514;28;20495;-58
2022/12/12 08:15:14;;;;;;;25.98;13.60;;;;;;;;;;5015696;28;20062;-59
2022/12/12 08:17:40;;;;;;;23.63;12.85;;;;;;;;;;5008291;28;20049;-58
2022/12/12 08:20:07;;;;;;;25.70;13.18;;;;;;;;;;5007180;28;20048;-60
2022/12/12 08:22:34;;;;;;;26.25;12.88;;;;;;;;;;5005562;28;20041;-59
2022/12/12 08:25:00;;;;;;;26.40;13.02;;;;;;;;;;5007320;28;20366;-61
2022/12/12 08:27:26;;;;;;;28.00;13.40;;;;;;;;;;5015443;28;20086;-62
2022/12/12 08:29:52;;;;;;;26.95;13.20;;;;;;;;;;5012423;28;20540;-60
2022/12/12 08:32:18;;;;;;;25.38;12.55;;;;;;;;;;5016109;28;20088;-61
2022/12/12 08:34:44;;;;;;;25.65;13.15;;;;;;;;;;5012649;28;20464;-61
2022/12/12 08:37:10;;;;;;;23.88;12.20;;;;;;;;;;5011878;28;20037;-61
2022/12/12 08:39:37;;;;;;;25.08;12.68;;;;;;;;;;5009333;28;20096;-64
2022/12/12 08:42:03;;;;;;;25.15;12.68;;;;;;;;;;5008605;28;20041;-63
2022/12/12 08:44:29;;;;;;;24.13;12.85;;;;;;;;;;5009974;28;20476;-64
2022/12/12 08:46:55;;;;;;;27.02;13.88;;;;;;;;;;5011573;28;20092;-64
2022/12/12 08:49:22;;;;;;;29.38;15.10;;;;;;;;;;5015172;28;20138;-64
2022/12/12 08:51:50;;;;;;;25.42;13.05;;;;;;;;;;5011431;28;20038;-63
2022/12/12 08:54:16;;;;;;;23.83;12.98;;;;;;;;;;5016079;28;20041;-64
2022/12/12 08:56:42;;;;;;;25.30;13.45;;;;;;;;;;5020715;28;20053;-64
2022/12/12 08:59:08;;;;;;;25.25;13.50;;;;;;;;;;5019460;28;20049;-64
2022/12/12 09:01:35;;;;;;;25.17;13.82;;;;;;;;;;5021715;28;20037;-65
2022/12/12 09:04:01;;;;;;;26.58;12.90;;;;;;;;;;5024690;28;20038;-65
2022/12/12 09:06:27;;;;;;;25.23;13.35;;;;;;;;;;5019342;28;20441;-63
2022/12/12 09:08:54;;;;;;;26.52;13.27;;;;;;;;;;5010008;28;20064;-64
2022/12/12 09:11:20;;;;;;;24.80;12.90;;;;;;;;;;5011534;28;20041;-65
2022/12/12 09:13:46;;;;;;;25.35;13.07;;;;;;;;;;5018137;28;20056;-63
2022/12/12 09:16:12;;;;;;;24.98;12.48;;;;;;;;;;5013340;28;20045;-63
2022/12/12 09:18:39;;;;;;;23.15;12.90;;;;;;;;;;5020065;28;20045;-63
2022/12/12 09:21:05;;;;;;;27.23;13.27;;;;;;;;;;5009674;28;20044;-63
2022/12/12 09:23:32;;;;;;;22.08;12.60;;;;;;;;;;5011619;28;20115;-63
2022/12/12 09:25:58;;;;;;;24.98;12.48;;;;;;;;;;5010319;28;20065;-64
2022/12/12 09:28:25;;;;;;;25.67;13.10;;;;;;;;;;5009879;28;20052;-64
2022/12/12 09:30:52;;;;;;;25.52;13.77;;;;;;;;;;5011821;28;20042;-64
2022/12/12 09:33:18;;;;;;;26.35;13.80;;;;;;;;;;5010193;28;20041;-63
2022/12/12 09:35:44;;;;;;;24.20;13.35;;;;;;;;;;5018182;28;20514;-63
2022/12/12 09:38:11;;;;;;;26.13;13.50;;;;;;;;;;5010823;28;20045;-64
2022/12/12 09:40:54;;;;;;;24.00;13.15;;;;;;;;;;5012282;28;20044;-63
2022/12/12 09:43:22;;;;;;;23.15;12.55;;;;;;;;;;5009300;28;20041;-65
2022/12/12 09:45:48;;;;;;;25.33;13.52;;;;;;;;;;5016005;28;20797;-63
2022/12/12 09:48:35;;;;;;;22.40;12.73;;;;;;;;;;5017452;28;20049;-64
2022/12/12 09:51:01;;;;;;;23.58;12.93;;;;;;;;;;5009119;28;20048;-64
2022/12/12 09:53:27;;;;;;;23.48;12.80;;;;;;;;;;5010459;28;20038;-64
2022/12/12 09:56:03;;;;;;;23.55;12.63;;;;;;;;;;5008179;28;20561;-65
2022/12/12 09:58:33;;;;;;;25.55;13.32;;;;;;;;;;5010742;28;20046;-65
2022/12/12 10:01:03;;;;;;;23.38;12.57;;;;;;;;;;5009710;28;20065;-65
2022/12/12 10:03:38;;;;;;;24.35;13.02;;;;;;;;;;5021864;28;20038;-64
2022/12/12 10:06:09;;;;;;;22.92;12.80;;;;;;;;;;5009806;28;20100;-63
2022/12/12 10:08:35;;;;;;;23.60;12.57;;;;;;;;;;5010536;28;20057;-60
2022/12/12 10:11:06;;;;;;;22.77;12.95;;;;;;;;;;5008919;28;20616;-60
2022/12/12 10:13:34;;;;;;;23.75;12.23;;;;;;;;;;5009560;28;20447;-60
2022/12/12 10:16:06;;;;;;;22.38;12.43;;;;;;;;;;5012817;28;20476;-60
2022/12/12 10:18:36;;;;;;;23.27;12.43;;;;;;;;;;5009543;28;20384;-59
2022/12/12 10:21:04;;;;;;;22.67;12.20;;;;;;;;;;5010484;28;20038;-59
2022/12/12 10:23:30;;;;;;;22.25;12.07;;;;;;;;;;5009418;28;20076;-61
2022/12/12 10:25:58;;;;;;;23.70;12.35;;;;;;;;;;5010903;28;20042;-60
2022/12/12 10:28:25;;;;;;;23.23;12.68;;;;;;;;;;5006903;28;20045;-61
2022/12/12 10:31:16;;;;;;;23.17;12.88;;;;;;;;;;5013512;28;20440;-60
2022/12/12 10:34:01;;;;;;;22.20;11.68;;;;;;;;;;5017779;28;20666;-60
2022/12/12 10:36:33;;;;;;;22.42;12.40;;;;;;;;;;5014480;28;20045;-59
2022/12/12 10:39:08;;;;;;;20.70;11.95;;;;;;;;;;5004344;28;20675;-58
2022/12/12 10:41:37;;;;;;;23.08;12.95;;;;;;;;;;5005632;28;20136;-59
2022/12/12 10:44:22;;;;;;;21.67;12.70;;;;;;;;;;5009524;28;20041;-59
2022/12/12 10:46:48;;;;;;;21.92;12.02;;;;;;;;;;5021630;28;20037;-59
2022/12/12 10:49:18;;;;;;;22.92;12.43;;;;;;;;;;5010527;28;20053;-59
2022/12/12 10:51:46;;;;;;;25.15;13.70;;;;;;;;;;5008386;28;20550;-60
2022/12/12 10:54:22;;;;;;;25.92;13.73;;;;;;;;;;5008629;28;20034;-58
2022/12/12 10:57:05;;;;;;;26.75;14.52;;;;;;;;;;4999739;28;20065;-59
2022/12/12 10:59:31;;;;;;;25.60;13.65;;;;;;;;;;5005186;28;20048;-59
2022/12/12 11:01:59;;;;;;;26.63;14.38;;;;;;;;;;5011218;28;20176;-58
2022/12/12 11:04:26;;;;;;;28.05;14.82;;;;;;;;;;5019860;28;20364;-58
2022/12/12 11:06:54;;;;;;;31.50;14.98;;;;;;;;;;5015747;28;20053;-58
2022/12/12 11:09:28;;;;;;;25.35;14.05;;;;;;;;;;5014858;28;20089;-60
2022/12/12 11:11:58;;;;;;;26.35;14.32;;;;;;;;;;5017228;28;20723;-59
2022/12/12 11:14:31;;;;;;;26.85;13.82;;;;;;;;;;5016413;28;20053;-59
2022/12/12 11:16:57;;;;;;;25.33;13.70;;;;;;;;;;5019385;28;20053;-59
2022/12/12 11:19:25;;;;;;;25.15;14.18;;;;;;;;;;5019113;28;20037;-59
2022/12/12 11:21:51;;;;;;;27.00;13.73;;;;;;;;;;5019818;28;20041;-60
2022/12/12 11:24:19;;;;;;;27.13;13.52;;;;;;;;;;5023920;28;20125;-60
2022/12/12 11:26:48;;;;;;;27.02;13.60;;;;;;;;;;5013753;28;20065;-59
2022/12/12 11:29:33;;;;;;;24.80;13.43;;;;;;;;;;5018683;28;20076;-60
2022/12/12 11:31:59;;;;;;;26.77;13.82;;;;;;;;;;5005320;28;20042;-60
2022/12/12 11:34:27;;;;;;;24.10;13.25;;;;;;;;;;5009396;28;20495;-60
2022/12/12 11:36:53;;;;;;;25.60;13.32;;;;;;;;;;5007643;28;20077;-56
2022/12/12 11:39:20;;;;;;;24.73;14.32;;;;;;;;;;5019491;28;20052;-58
2022/12/12 11:42:00;;;;;;;27.83;15.18;;;;;;;;;;5007912;28;20101;-59
2022/12/12 11:44:30;;;;;;;28.15;15.93;;;;;;;;;;5012210;28;20077;-59
2022/12/12 11:46:56;;;;;;;31.25;15.55;;;;;;;;;;5022242;28;20041;-59
2022/12/12 11:49:22;;;;;;;31.08;16.42;;;;;;;;;;5017489;28;20050;-60
2022/12/12 11:51:48;;;;;;;31.75;16.30;;;;;;;;;;5009452;28;20104;-60
2022/12/12 11:54:29;;;;;;;32.53;16.35;;;;;;;;;;5009748;28;20089;-60
2022/12/12 11:57:03;;;;;;;33.75;16.42;;;;;;;;;;5009729;28;20037;-60
2022/12/12 11:59:32;;;;;;;31.85;17.25;;;;;;;;;;5026194;28;20484;-59
2022/12/12 12:02:05;;;;;;;31.75;16.98;;;;;;;;;;5018572;28;20034;-60
2022/12/12 12:04:31;;;;;;;33.83;17.48;;;;;;;;;;5013544;28;20117;-60
2022/12/12 12:07:03;;;;;;;31.55;16.85;;;;;;;;;;5012375;28;20492;-60
2022/12/12 12:09:47;;;;;;;36.20;17.83;;;;;;;;;;5019205;28;20116;-60
2022/12/12 12:12:16;;;;;;;37.92;18.27;;;;;;;;;;4996426;28;20136;-60
2022/12/12 12:15:02;;;;;;;32.63;17.02;;;;;;;;;;5009451;28;20090;-59
2022/12/12 12:17:46;;;;;;;37.38;18.23;;;;;;;;;;5011407;28;20077;-60
2022/12/12 12:20:19;;;;;;;34.47;16.70;;;;;;;;;;5004312;28;20044;-60
2022/12/12 12:22:51;;;;;;;34.53;17.95;;;;;;;;;;5006286;28;20045;-60
2022/12/12 12:25:17;;;;;;;;;;;;;;;;;;5007664;28;20033;-60
2022/12/12 12:27:43;;;;;;;34.15;16.88;;;;;;;;;;5013843;28;20066;-60
2022/12/12 12:30:12;;;;;;;35.30;17.45;;;;;;;;;;5012056;28;20029;-61
2022/12/12 12:32:57;;;;;;;31.58;17.02;;;;;;;;;;5014654;28;20296;-59
2022/12/12 12:35:30;;;;;;;33.03;17.00;;;;;;;;;;5018526;28;20125;-61
2022/12/12 12:37:59;;;;;;;32.42;16.60;;;;;;;;;;5015367;28;20042;-59
2022/12/12 12:40:33;;;;;;;33.60;16.65;;;;;;;;;;5010508;28;20048;-61
2022/12/12 12:43:06;;;;;;;31.35;16.92;;;;;;;;;;5010150;28;20033;-61
2022/12/12 12:45:48;;;;;;;35.05;18.33;;;;;;;;;;5010199;28;20376;-59
2022/12/12 12:48:23;;;;;;;33.42;18.10;;;;;;;;;;5009368;28;20049;-57
2022/12/12 12:50:54;;;;;;;30.55;16.52;;;;;;;;;;5010798;28;20679;-58
2022/12/12 12:53:49;;;;;;;29.90;16.27;;;;;;;;;;5002926;28;20046;-61
2022/12/12 12:56:19;;;;;;;29.95;16.00;;;;;;;;;;4993984;28;20482;-61
2022/12/12 12:58:46;;;;;;;30.45;15.75;;;;;;;;;;5011984;28;20148;-61
2022/12/12 13:01:22;;;;;;;31.42;16.80;;;;;;;;;;5008762;28;20034;-61
2022/12/12 13:04:02;;;;;;;30.88;16.50;;;;;;;;;;5014236;28;20069;-61
2022/12/12 13:06:46;;;;;;;31.58;16.95;;;;;;;;;;5007043;28;20046;-61
2022/12/12 13:09:22;;;;;;;28.70;15.98;;;;;;;;;;5004346;28;20042;-60
2022/12/12 13:11:50;;;;;;;30.75;16.27;;;;;;;;;;5003324;28;20042;-60
2022/12/12 13:14:34;;;;;;;30.60;15.98;;;;;;;;;;5002863;28;20735;-61
2022/12/12 13:17:05;;;;;;;28.10;15.05;;;;;;;;;;5020896;28;20034;-60
2022/12/12 13:19:37;;;;;;;27.38;15.60;;;;;;;;;;5026362;28;20041;-60
2022/12/12 13:22:05;;;;;;;30.25;16.42;;;;;;;;;;5008756;28;20527;-59
2022/12/12 13:24:36;;;;;;;29.40;15.25;;;;;;;;;;5009744;28;20037;-60
2022/12/12 13:27:18;;;;;;;31.85;16.10;;;;;;;;;;5021815;28;20161;-60
2022/12/12 13:29:47;;;;;;;32.60;16.33;;;;;;;;;;5016652;28;20172;-60
2022/12/12 13:32:22;;;;;;;30.70;16.50;;;;;;;;;;5008614;28;20136;-60
2022/12/12 13:34:51;;;;;;;29.70;15.57;;;;;;;;;;5008922;28;20050;-59
2022/12/12 13:37:18;;;;;;;28.20;14.68;;;;;;;;;;5003961;28;20372;-58
2022/12/12 13:39:44;;;;;;;33.13;16.52;;;;;;;;;;5014477;28;20050;-58
2022/12/12 13:42:12;;;;;;;30.33;15.38;;;;;;;;;;5010612;28;20034;-58
2022/12/12 13:44:40;;;;;;;31.25;15.80;;;;;;;;;;5017652;28;20046;-58
2022/12/12 13:47:22;;;;;;;32.75;16.45;;;;;;;;;;5018497;28;20127;-59
2022/12/12 13:50:05;;;;;;;34.00;17.17;;;;;;;;;;5010887;28;20243;-57
2022/12/12 13:52:32;;;;;;;30.00;15.60;;;;;;;;;;5001910;28;20830;-59
2022/12/12 13:55:10;;;;;;;27.63;14.50;;;;;;;;;;5023028;28;20081;-58
2022/12/12 13:58:04;;;;;;;31.15;14.82;;;;;;;;;;5006262;28;20778;-60
2022/12/12 14:00:41;;;;;;;31.92;15.98;;;;;;;;;;5010420;28;20081;-66
2022/12/12 14:03:07;;;;;;;33.60;17.10;;;;;;;;;;5009894;28;20034;-66
2022/12/12 14:05:33;;;;;;;35.10;17.67;;;;;;;;;;5004697;28;20669;-66
2022/12/12 14:08:07;;;;;;;35.80;17.40;;;;;;;;;;5020477;28;20038;-62
2022/12/12 14:10:35;;;;;;;34.45;17.63;;;;;;;;;;5016946;28;20399;-63
2022/12/12 14:13:20;;;;;;;33.85;17.02;;;;;;;;;;5005630;28;20054;-64
2022/12/12 14:15:47;;;;;;;35.65;18.35;;;;;;;;;;5009710;28;20128;-63
2022/12/12 14:18:20;;;;;;;37.17;18.55;;;;;;;;;;5009232;28;20077;-65
2022/12/12 14:21:07;;;;;;;37.50;17.75;;;;;;;;;;5007582;28;20412;-68
2022/12/12 14:23:35;;;;;;;36.88;18.70;;;;;;;;;;5007168;28;20049;-66
2022/12/12 14:26:11;;;;;;;36.53;18.45;;;;;;;;;;5007438;28;20041;-67
2022/12/12 14:28:37;;;;;;;40.85;19.40;;;;;;;;;;5018412;28;20108;-68
2022/12/12 14:31:03;;;;;;;38.55;19.63;;;;;;;;;;5003625;28;20049;-68
2022/12/12 14:33:39;;;;;;;36.95;18.20;;;;;;;;;;5014955;28;20045;-68
2022/12/12 14:36:12;;;;;;;37.95;18.13;;;;;;;;;;5003904;28;20048;-68
2022/12/12 14:38:57;;;;;;;36.05;18.08;;;;;;;;;;5013356;28;20041;-65
2022/12/12 14:41:28;;;;;;;37.03;18.88;;;;;;;;;;4999706;28;20096;-66
2022/12/12 14:43:56;;;;;;;39.00;19.33;;;;;;;;;;5004209;28;20581;-65
2022/12/12 14:46:22;;;;;;;40.55;18.92;;;;;;;;;;5005570;28;20522;-66